Flight Track Log - Related Links

Times and Time Zones

All times are in EST time to prevent confusion due to time zone crossing. See the N884FT flight status page for this flight to view local times or setup timezone preferences in your user account.

Time Position Orientation Groundspeed Altitude Reporting Facility
EST Latitude Longitude Course Direction KTS MPH feet Rate Location/Type
Tue 08:17:14 PM 26.6553 -81.0453 299° West 162 186 4,500  Level Miami Center
Tue 08:18:14 PM 26.6750 -81.0853 299° West 162 186 4,500  Level Miami Center
Tue 08:19:14 PM 26.6947 -81.1256 299° West 162 186 4,500  Level Miami Center
Tue 08:20:14 PM 26.7164 -81.1683 300° West 162 186 4,500  Level Miami Center
Tue 08:21:15 PM 26.7400 -81.2133 300° West 162 186 4,500  Level Miami Center
Tue 08:22:00 PM 26.7453 -81.2072 299° West  Level FlightAware Approximate
Tue 08:22:14 PM 26.7575 -81.2558 295° West 162 186 4,500  Level Miami Center
Tue 08:23:14 PM 26.7794 -81.2961 301° West 162 186 4,500  Level Miami Center
Tue 08:24:14 PM 26.7989 -81.3389 297° West 162 186 4,500  Level Miami Center
Tue 08:25:14 PM 26.8208 -81.3769 303° West 162 186 4,500  Level Miami Center
Tue 08:26:14 PM 26.8403 -81.4194 297° West 162 186 4,500  Level Miami Center
Tue 08:29:50 PM 26.9128 -81.5667 299° West 150 173 4,500  Level Miami Center
Tue 08:30:50 PM 26.9303 -81.6069 296° West 156 180 4,500  Level Miami Center
Tue 08:31:50 PM 26.9519 -81.6475 301° West 156 180 4,500  Level Miami Center
Tue 08:32:50 PM 26.9733 -81.6903 299° West 156 180 4,500  Level Miami Center
Tue 08:33:50 PM 26.9928 -81.7331 297° West 161 185 4,500  Level Miami Center
Tue 08:34:50 PM 27.0125 -81.7711 300° West 161 185 4,500  Level Miami Center
Tue 08:35:50 PM 27.0339 -81.8139 299° West 162 186 4,500 -50 Level Miami Center
Tue 08:36:50 PM 27.0575 -81.8569 302° West 162 186 4,400  Descending Miami Center
Tue 08:37:50 PM 27.0769 -81.8997 297° West 162 186 4,500  Climbing Miami Center
Tue 08:38:50 PM 27.0964 -81.9425 297° West 162 186 4,400 -50 Descending Miami Center
Tue 08:39:50 PM 27.1197 -81.9878 300° West 162 186 4,400  Level Miami Center
Tue 08:40:50 PM 27.1411 -82.0308 299° West 162 186 4,400  Level Miami Center
Tue 08:41:50 PM 27.1625 -82.0739 299° West 162 186 4,400 50 Level Miami Center
Tue 08:42:50 PM 27.1797 -82.1189 293° West 162 186 4,500  Climbing Miami Center
Tue 08:43:50 PM 27.2031 -82.1667 299° West 162 186 4,400  Descending Miami Center
Tue 08:44:50 PM 27.2244 -82.2097 299° West 162 186 4,500 -250 Climbing Miami Center
Tue 08:45:50 PM 27.2478 -82.2575 299° West 168 193 3,900 -500 Descending Miami Center
Tue 08:46:50 PM 27.2708 -82.3053 299° West 168 193 3,500 -500 Descending Miami Center
Tue 08:47:50 PM 27.2942 -82.3506 300° West 168 193 2,900 -528 Descending Miami Center
Tue 08:48:55 PM 27.3167 -82.4000 297° West 171 197 2,400 -480 Descending Tampa TRACON
Tue 08:49:55 PM 27.3500 -82.4500 307° West 157 181 1,900 -650 Descending Tampa TRACON
Tue 08:50:55 PM 27.3500 -82.4833 270° West 99 114 1,100 -650 Descending Tampa TRACON
Tue 08:51:55 PM 27.3500 -82.5000 270° West 82 94 600 -300 Descending Tampa TRACON
Tue 08:52:55 PM 27.3667 -82.5333 299° West 80 92 500 -69 Descending Tampa TRACON
Tue 08:54:49 PM 27.4000 -82.5500 294° West 81 93 400 269 Descending Tampa TRACON
Tue 08:55:31 PM 27.4167 -82.5667 318° Northwest 94 108 1,200 882 Climbing Tampa TRACON
Tue 08:56:31 PM 27.4333 -82.5667 360° North 113 130 1,900 684 Climbing Tampa TRACON
Tue 08:57:25 PM 27.4667 -82.5667 360° North 115 132 2,500 737 Climbing Tampa TRACON
Tue 08:58:25 PM 27.4833 -82.5500 42° Northeast 98 113 3,300 700 Climbing Tampa TRACON
Tue 08:59:25 PM 27.5000 -82.5167 61° Northeast 104 120 3,900 524 Climbing Tampa TRACON
Tue 09:00:31 PM 27.5167 -82.4833 61° Northeast 109 125 4,400 500 Climbing Tampa TRACON
Tue 09:01:25 PM 27.5167 -82.4667 90° East 119 137 4,900 526 Climbing Tampa TRACON
Tue 09:02:25 PM 27.5333 -82.4167 69° East 123 142 5,400 300 Climbing Tampa TRACON
Tue 09:03:25 PM 27.5500 -82.3833 61° Northeast 136 157 5,500 48 Climbing Tampa TRACON
Tue 09:04:31 PM 27.5667 -82.3333 69° East 156 180 5,500  Level Tampa TRACON
Tue 09:05:32 PM 27.5833 -82.2833 69° East 158 182 5,500  Level Tampa TRACON
Tue 09:06:32 PM 27.6000 -82.2500 61° Northeast 157 181 5,500  Level Tampa TRACON
Tue 09:09:50 PM 27.6422 -82.0861 74° East 155 178 5,500  Level Miami Center
Tue 09:10:50 PM 27.6606 -82.0403 66° East 150 173 5,500  Level Miami Center
Tue 09:11:50 PM 27.6744 -81.9986 69° East 145 167 5,500  Level Miami Center
Tue 09:12:50 PM 27.6886 -81.9547 70° East 152 175 5,500  Level Miami Center
Tue 09:13:50 PM 27.7006 -81.9131 72° East 152 175 5,500  Level Miami Center
Tue 09:14:50 PM 27.7192 -81.8575 69° East 147 169 5,500  Level Miami Center
Tue 09:15:50 PM 27.7311 -81.8136 73° East 147 169 5,500  Level Miami Center
Tue 09:16:50 PM 27.7492 -81.7697 65° Northeast 147 169 5,500  Level Miami Center
Tue 09:17:50 PM 27.7611 -81.7258 73° East 147 169 5,500 50 Level Miami Center
Tue 09:18:50 PM 27.7775 -81.6772 69° East 147 169 5,600 50 Climbing Miami Center
Tue 09:19:50 PM 27.7936 -81.6308 69° East 147 169 5,600  Level Miami Center
Tue 09:20:50 PM 27.8078 -81.5847 71° East 147 169 5,600  Level Miami Center
Tue 09:21:50 PM 27.8217 -81.5358 72° East 147 169 5,600  Level Miami Center
Tue 09:22:50 PM 27.8358 -81.4872 72° East 147 169 5,600  Level Miami Center
Tue 09:23:50 PM 27.8539 -81.4408 66° East 147 169 5,600 -50 Level Miami Center
Tue 09:24:50 PM 27.8656 -81.4039 70° East 147 169 5,500 -50 Descending Miami Center
Tue 09:25:50 PM 27.8797 -81.3528 73° East 147 169 5,500 56 Level Miami Center
Tue 09:26:38 PM 27.9000 -81.3167 58° Northeast 157 181 5,600  Climbing Orlando TRACON
Tue 09:27:38 PM 27.9167 -81.2667 69° East 158 182 5,500  Descending Orlando TRACON
Tue 09:28:44 PM 27.9333 -81.2167 69° East 158 182 5,600 50 Climbing Orlando TRACON
Tue 09:29:38 PM 27.9333 -81.1667 90° East 159 183 5,600  Level Orlando TRACON
Tue 09:30:32 PM 27.9500 -81.1333 60° Northeast 160 184 5,600  Level Orlando TRACON
Tue 09:31:32 PM 27.9667 -81.0833 69° East 160 184 5,600  Level Orlando TRACON
Tue 09:32:32 PM 27.9833 -81.0333 69° East 159 183 5,600  Level Orlando TRACON
Tue 09:33:32 PM 28.0000 -80.9833 69° East 160 184 5,600  Level Orlando TRACON
Tue 09:34:38 PM 28.0167 -80.9333 69° East 159 183 5,600 -190 Level Orlando TRACON
Tue 09:35:38 PM 28.0333 -80.8833 69° East 158 182 5,200 -955 Descending Orlando TRACON
Tue 09:36:50 PM 28.0667 -80.8667 24° Northeast 115 132 3,500 -1,273 Descending Orlando TRACON
Tue 09:37:50 PM 28.0833 -80.8333 60° Northeast 110 127 2,400 -850 Descending Orlando TRACON
Tue 09:38:50 PM 28.0833 -80.8000 90° East 105 121 1,800 -579 Descending Orlando TRACON
Tue 09:39:44 PM 28.1000 -80.7833 41° Northeast 101 116 1,300 -474 Descending Orlando TRACON
Tue 09:40:44 PM 28.1000 -80.7500 90° East 93 107 900 -100 Descending Orlando TRACON
Tue 09:41:44 PM 28.1000 -80.7333 90° East 84 97 1,100 -50 Climbing Orlando TRACON
Tue 09:42:44 PM 28.1000 -80.7000 90° East 85 98 800 -368 Descending Orlando TRACON
Tue 09:43:38 PM 28.1000 -80.6833 90° East 74 85 400 -444 Descending Orlando TRACON

Login

Don't have an account? Register now (free) for customized features, flight alerts, and more!